Atlantic City, NJ

7:43 PM EDT on August 25, 2016 (GMT -0400)
APRSWXNET | | Change Station
Active Advisory: Air Quality Alert

Elev 9 ft 39.40 °N, 74.47 °W | Updated 24 minutes ago

Scattered Clouds
Scattered Clouds
77 °F
Feels Like 79 °F
N
0
Wind Variable Wind from SSW
Gusts 0.0 mph

Today
High -- | Low -- °F
--% Chance of Precip.
Yesterday
High -- | Low -- °F
Precip. -- in
Pressure 30.03 in
Visibility 10.0 miles
Clouds Scattered Clouds 6500 ft
Heat Index 79 °F
Dew Point 71 °F
Humidity 82%
Rainfall in
Snow Depth Not available.
6:20 AM 7:38 PM
Last Quarter, 41% visible
METAR KACY 252254Z 19009KT 10SM SCT065 27/19 A3003 RMK AO2 SLP169 T02720189
Pressure 30.03 in
Visibility 10.0 miles
Clouds Scattered Clouds 6500 ft
Heat Index 79 °F
Dew Point 71 °F
Humidity 82%
Rainfall in
Snow Depth Not available.
6:20 AM 7:38 PM
Last Quarter, 41% visible
METAR KACY 252254Z 19009KT 10SM SCT065 27/19 A3003 RMK AO2 SLP169 T02720189
A tropical disturbance pushing toward the Bahamas, is expected to develop into a tropical depression or storm, and will likely target Florida and the Gulf Coast this weekend into next week.

Right now, the disturbance remains a broad area of low pressure pushing through the Dominican Republic and Haiti, headed toward the southeast Bahamas. Rainfall totals over 3 inches (with locally higher amounts) are expected in HispaƱiola, particularly over elevated terrain.

10-Day Weather Forecast

Almanac

Astronomy

Aug. 25, 2016 Rise Set
Actual Time
Civil Twilight
Nautical Twilight
Astronomical Twilight
Moon
Length of Visible Light
Length of Day
Tomorrow will be .
, % of the Moon is Illuminated

Today's Extremes

State Highs State Lows

Community

WunderPhotos

Upload Photos

1,934,967 photos uploaded!

WunderBlog® & News

Nearby

Air Quality

  Air Quality AQ Index Pollutant
Not available.

Snow Depth

Station Depth Elevation

Earthquake Activity

City Distance Mag. Time & Date
Minimum magnitude displayed is 2.5.

Coastal Water Temperatures

Place Temperature

Stations

Nearby Weather Stations

Station Location Temp. Windchill Dew Point Humidity Wind Precip. Elev Updated Type
                   

Watches & Warnings

Air Quality Alert
Issued: National Weather Service

nnnn


hours.

Nnnn